Pagina principale
METAR-TAF:

METAR-TAF

Aeroporti :

Aeroporto d'Engadina

Sankt Moritz, Svizzera

latitudine: 46-32-03N, longitudine: 9-53-03E, altezza: 1707 m

Osservazione

Il bollettino è stato emesso 20 minuti fa, alle 16:20 UTC
Vento 11 kt da nord/nord-est, variando fra nord e est/nord-est
Temperature 13°C
Umidità 44%
Pressione 1018 hPa
Visibilità 10 km o più
Poco nuvoloso ad un'altezza di 6000 ft

METAR: LSZS 311620Z AUTO 03011KT 350V060 9999 FEW060 13/01 Q1018

Ora: 18:40 (16:40 UTC)

Previsione

Il bollettino è stato emesso 2 ore e 15 minuti fa, alle 14:25 UTC
Previsione valida dal 31 alle 15 UTC al 31 alle 24 UTC
Vento 5 kt da nord/nord-ovest
Visibilità 10 km o più
Nuvoloso ad un'altezza di 6500 ft

TAF: LSZS 311425Z 3115/3124 34005KT 9999 BKN065 TX14/3115Z

Osservazioni e previsioni meteorologiche di più di 4000 aeroporti (messaggi METAR e TAF).

Le stazioni disponibili sono rappresentate dai dischi gialli e rossi sulla carta.

Puntare il mouse per vedere il nome della stazione.

Clicca sopra per visualizzare le osservazioni e previsioni meteorologiche.

Per cambiare la mappa : fare clic sui pulsanti verdi con una croce nera per ingrandire, il pulsante verde con un trattino per diminuire, o sulla freccia verde per le mappe adiacenti.


METAR-TAF: